Time;durP1;ratioP1;P1;durP2;ratioP2;P2;SDS_P1;SDS_P2;PMS_P1;PMS_P2;Temp;Humidity;BMP_temperature;BMP_pressure;BME280_temperature;BME280_humidity;BME280_pressure;Samples;Min_cycle;Max_cycle;Signal;HPM_P1;HPM_P2
2022/07/24 00:00:40;;;;;;;12.85;9.65;;;;;;;20.29;90.41;99248.86;1658824;85;20999;-38
2022/07/24 00:03:06;;;;;;;13.30;8.70;;;;;;;20.31;89.47;99244.21;1658774;85;21011;-46
2022/07/24 00:05:32;;;;;;;17.67;9.13;;;;;;;20.36;88.76;99258.47;1658781;86;20979;-42
2022/07/24 00:07:58;;;;;;;12.18;9.15;;;;;;;20.36;87.87;99256.30;1658799;86;21032;-40
2022/07/24 00:10:24;;;;;;;11.90;9.00;;;;;;;20.31;87.87;99266.08;1658829;86;20995;-39
2022/07/24 00:12:50;;;;;;;15.20;8.25;;;;;;;20.29;87.01;99268.89;1658769;86;21063;-43
2022/07/24 00:15:16;;;;;;;15.58;8.60;;;;;;;20.18;87.74;99266.41;1658796;85;20983;-41
2022/07/24 00:17:41;;;;;;;11.83;8.38;;;;;;;20.22;86.93;99270.97;1658764;86;21003;-40
2022/07/24 00:20:09;;;;;;;14.07;7.90;;;;;;;20.20;87.02;99271.61;1658822;85;21039;-45
2022/07/24 00:22:35;;;;;;;15.08;8.25;;;;;;;20.16;86.79;99272.91;1658799;85;21015;-44
2022/07/24 00:25:01;;;;;;;12.15;8.08;;;;;;;20.18;86.52;99279.77;1658784;86;21457;-41
2022/07/24 00:27:27;;;;;;;9.98;8.00;;;;;;;20.10;86.14;99275.64;1658804;86;21047;-42
2022/07/24 00:29:53;;;;;;;12.98;7.75;;;;;;;20.09;86.30;99284.15;1658789;86;20975;-39
2022/07/24 00:32:18;;;;;;;11.88;7.37;;;;;;;20.13;85.97;99280.19;1658838;85;21043;-42
2022/07/24 00:34:44;;;;;;;8.65;7.05;;;;;;;20.10;86.14;99288.98;1658771;86;21039;-42
2022/07/24 00:37:10;;;;;;;12.37;7.37;;;;;;;19.99;85.65;99285.17;1659009;86;20999;-42
2022/07/24 00:39:36;;;;;;;11.20;6.72;;;;;;;20.01;85.22;99283.19;1658834;86;21007;-40
2022/07/24 00:42:02;;;;;;;10.18;7.22;;;;;;;19.96;85.53;99283.64;1658808;86;21584;-42
2022/07/24 00:44:28;;;;;;;12.80;8.28;;;;;;;19.94;85.65;99283.78;1658991;86;21494;-41
2022/07/24 00:46:54;;;;;;;13.18;7.62;;;;;;;19.98;84.86;99290.17;1658833;86;21049;-42
2022/07/24 00:49:20;;;;;;;14.15;7.65;;;;;;;19.91;85.96;99289.40;1673850;85;21548;-42
2022/07/24 00:51:49;;;;;;;13.18;7.08;;;;;;;19.96;85.04;99292.98;1676448;84;21531;-44
2022/07/24 00:54:17;;;;;;;10.60;6.80;;;;;;;19.89;85.04;99291.38;1676444;85;21047;-41
2022/07/24 00:56:46;;;;;;;10.75;6.58;;;;;;;19.84;85.54;99290.96;1676408;85;21000;-41
2022/07/24 00:59:12;;;;;;;8.43;6.72;;;;;;;19.80;85.30;99293.58;1676385;85;21546;-39
2022/07/24 01:01:38;;;;;;;7.22;6.45;;;;;;;19.78;84.88;99303.55;1676459;85;21067;-42
2022/07/24 01:04:04;;;;;;;14.93;7.65;;;;;;;19.72;85.21;99300.11;1676426;85;21168;-39
2022/07/24 01:06:30;;;;;;;10.32;6.90;;;;;;;19.52;85.99;99301.96;1676325;85;21601;-40
2022/07/24 01:08:56;;;;;;;7.28;6.30;;;;;;;19.51;86.16;99298.43;1676392;85;21485;-44
2022/07/24 01:11:22;;;;;;;11.03;7.17;;;;;;;19.28;86.48;99307.23;1676375;85;21052;-41
2022/07/24 01:13:50;;;;;;;11.10;6.65;;;;;;;19.45;85.80;99303.01;1676553;85;20992;-41
2022/07/24 01:16:16;;;;;;;9.95;6.87;;;;;;;19.46;85.48;99304.67;1676544;85;21036;-40
2022/07/24 01:18:42;;;;;;;13.62;6.53;;;;;;;19.41;85.66;99310.08;1676450;85;21004;-37
2022/07/24 01:21:08;;;;;;;12.15;6.30;;;;;;;19.37;85.98;99308.19;1676400;85;21545;-41
2022/07/24 01:23:34;;;;;;;8.78;5.95;;;;;;;19.42;84.86;99311.28;1676303;84;21080;-43
2022/07/24 01:26:01;;;;;;;12.47;6.92;;;;;;;19.35;85.24;99314.16;1676308;85;21012;-42
2022/07/24 01:28:28;;;;;;;8.85;6.55;;;;;;;19.29;85.34;99319.56;1676443;85;21019;-41
2022/07/24 01:30:54;;;;;;;10.23;6.58;;;;;;;19.22;85.73;99308.27;1676650;85;21016;-44
2022/07/24 01:33:20;;;;;;;10.68;6.72;;;;;;;19.27;85.20;99310.03;1676480;85;21000;-44
2022/07/24 01:35:46;;;;;;;10.13;7.10;;;;;;;19.26;84.83;99313.17;1676392;85;21521;-42
2022/07/24 01:38:13;;;;;;;14.10;6.60;;;;;;;19.26;84.46;99317.17;1676358;85;21040;-40
2022/07/24 01:40:39;;;;;;;11.63;6.25;;;;;;;19.20;85.36;99310.23;1676460;85;21053;-43
2022/07/24 01:43:06;;;;;;;13.10;6.92;;;;;;;19.17;85.16;99314.87;1676423;85;21016;-41
2022/07/24 01:45:32;;;;;;;12.67;6.67;;;;;;;19.08;85.62;99313.05;1676580;85;21494;-40
2022/07/24 01:47:57;;;;;;;10.30;5.62;;;;;;;18.97;86.37;99312.68;1676242;85;21044;-40
2022/07/24 01:50:24;;;;;;;9.15;6.83;;;;;;;19.02;84.96;99309.58;1676431;85;21404;-43
2022/07/24 01:52:50;;;;;;;7.65;6.30;;;;;;;18.89;86.73;99318.34;1676347;85;21040;-40
2022/07/24 01:55:16;;;;;;;9.48;6.42;;;;;;;18.85;86.14;99322.27;1676317;85;21012;-41
2022/07/24 01:57:41;;;;;;;11.43;6.85;;;;;;;18.85;86.09;99316.44;1676301;85;21048;-40
2022/07/24 02:00:12;;;;;;;11.35;7.03;;;;;;;18.72;87.16;99320.66;1676457;85;21632;-42
2022/07/24 02:02:36;;;;;;;10.95;6.60;;;;;;;18.75;86.51;99316.36;1675957;85;20992;-39
2022/07/24 02:05:03;;;;;;;10.43;6.67;;;;;;;18.64;87.91;99311.65;1676398;85;21048;-37
2022/07/24 02:07:29;;;;;;;14.80;7.70;;;;;;;18.66;87.69;99309.19;1676298;85;21056;-41
2022/07/24 02:09:54;;;;;;;11.93;7.20;;;;;;;18.55;88.49;99310.64;1676312;85;21478;-42
2022/07/24 02:12:20;;;;;;;8.75;6.30;;;;;;;18.63;87.35;99308.16;1676397;85;20988;-38
2022/07/24 02:14:46;;;;;;;10.93;7.12;;;;;;;18.63;86.94;99304.16;1676316;85;21016;-37
2022/07/24 02:17:12;;;;;;;9.80;6.85;;;;;;;18.60;86.39;99301.27;1676490;85;20988;-41
2022/07/24 02:19:38;;;;;;;10.28;6.70;;;;;;;18.53;86.53;99300.61;1676340;85;21008;-44
2022/07/24 02:22:04;;;;;;;9.18;6.90;;;;;;;18.41;87.86;99304.72;1676288;85;21012;-40
2022/07/24 02:24:29;;;;;;;11.57;6.67;;;;;;;18.42;87.68;99296.23;1676303;85;21043;-41
2022/07/24 02:26:55;;;;;;;16.45;6.62;;;;;;;18.39;87.76;99302.68;1676317;85;21580;-42
2022/07/24 02:29:21;;;;;;;10.53;7.10;;;;;;;18.34;87.95;99306.23;1676331;85;21004;-38
2022/07/24 02:31:47;;;;;;;10.40;6.55;;;;;;;18.33;87.93;99302.36;1676366;85;20965;-43
2022/07/24 02:34:12;;;;;;;14.40;6.12;;;;;;;18.36;87.23;99302.94;1676424;85;21494;-37
2022/07/24 02:36:38;;;;;;;9.85;6.37;;;;;;;18.32;87.02;99298.00;1676323;85;21497;-42
2022/07/24 02:39:04;;;;;;;14.28;6.75;;;;;;;18.25;87.63;99302.20;1676304;85;20985;-41
2022/07/24 02:43:26;;;;;;;15.25;6.10;;;;;;;18.12;87.62;99297.94;1800734;79;22210;-42
2022/07/24 02:45:52;;;;;;;10.03;6.35;;;;;;;18.14;87.06;99303.14;1761831;81;21004;-40
2022/07/24 02:48:18;;;;;;;13.93;6.25;;;;;;;18.07;87.51;99304.64;1761742;81;21022;-40
2022/07/24 02:50:44;;;;;;;12.43;6.75;;;;;;;18.08;87.46;99299.19;1761684;80;21022;-42
2022/07/24 02:53:09;;;;;;;9.15;5.80;;;;;;;18.13;87.48;99296.95;1761761;81;21103;-44
2022/07/24 02:55:35;;;;;;;10.75;6.50;;;;;;;18.12;87.19;99302.41;1761719;81;21035;-38
2022/07/24 02:58:01;;;;;;;10.20;6.28;;;;;;;18.09;87.67;99302.19;1761733;80;20991;-39
2022/07/24 03:00:27;;;;;;;12.33;6.45;;;;;;;18.11;87.44;99299.41;1761720;81;21004;-45
2022/07/24 03:02:53;;;;;;;10.03;5.62;;;;;;;18.12;87.52;99304.59;1761691;81;20995;-41
2022/07/24 03:05:19;;;;;;;12.65;6.87;;;;;;;18.12;87.17;99308.59;1761779;80;20969;-39
2022/07/24 03:07:44;;;;;;;14.60;6.30;;;;;;;18.09;87.04;99312.00;1761821;81;21003;-45
2022/07/24 03:10:12;;;;;;;13.28;6.33;;;;;;;18.06;87.58;99305.60;1762008;81;21468;-44
2022/07/24 03:12:38;;;;;;;9.40;5.95;;;;;;;18.09;86.56;99311.50;1761770;81;20983;-41
2022/07/24 03:15:06;;;;;;;11.22;6.97;;;;;;;18.09;87.06;99318.66;1761706;80;21018;-41
2022/07/24 03:17:32;;;;;;;15.90;6.33;;;;;;;18.06;87.24;99318.91;1761676;81;21046;-40
2022/07/24 03:19:57;;;;;;;11.60;6.78;;;;;;;18.06;86.84;99326.89;1761701;81;21046;-44
2022/07/24 03:22:23;;;;;;;6.75;5.85;;;;;;;18.04;86.99;99332.34;1761681;81;20991;-43
2022/07/24 03:24:49;;;;;;;9.80;6.25;;;;;;;18.03;86.49;99339.48;1761689;81;20987;-45
2022/07/24 03:27:15;;;;;;;12.18;5.62;;;;;;;18.00;86.05;99331.76;1761738;80;20999;-39
2022/07/24 03:29:41;;;;;;;14.10;5.58;;;;;;;17.96;86.23;99338.82;1761721;81;21034;-42
2022/07/24 03:32:07;;;;;;;8.70;5.17;;;;;;;17.97;85.60;99341.36;1761679;80;21043;-42
2022/07/24 03:34:32;;;;;;;12.40;5.17;;;;;;;17.88;85.39;99346.10;1761679;81;21030;-46
2022/07/24 03:36:58;;;;;;;9.05;5.17;;;;;;;17.84;85.54;99348.17;1761736;81;20960;-39
2022/07/24 03:39:24;;;;;;;16.15;5.40;;;;;;;17.86;85.39;99351.20;1761769;81;21461;-45
2022/07/24 03:41:50;;;;;;;9.10;5.12;;;;;;;17.81;85.32;99344.93;1758625;80;21012;-42
2022/07/24 03:44:16;;;;;;;14.43;5.15;;;;;;;17.82;84.80;99346.59;1748649;81;20991;-41
2022/07/24 03:46:41;;;;;;;10.25;5.20;;;;;;;17.85;84.54;99354.36;1748586;81;21023;-42
2022/07/24 03:49:07;;;;;;;9.88;5.08;;;;;;;17.78;84.74;99344.69;1748601;81;20972;-42
2022/07/24 03:51:34;;;;;;;7.78;5.28;;;;;;;17.80;84.32;99351.21;1748599;82;20968;-37
2022/07/24 03:54:02;;;;;;;5.92;5.22;;;;;;;17.78;84.87;99353.16;1748362;82;21477;-42
2022/07/24 03:56:28;;;;;;;;;;;;;;;17.77;84.62;99352.33;1750728;81;21035;-40
2022/07/24 03:58:54;;;;;;;10.80;5.22;;;;;;;17.78;84.63;99354.48;1748078;82;20109;-45
2022/07/24 04:01:21;;;;;;;12.88;5.15;;;;;;;17.78;83.87;99354.48;1748008;81;21003;-42
2022/07/24 04:03:47;;;;;;;7.28;5.22;;;;;;;17.74;84.48;99355.23;1748222;81;20987;-42
2022/07/24 04:06:13;;;;;;;9.83;4.97;;;;;;;17.73;84.15;99357.52;1748121;82;21473;-44
2022/07/24 04:08:39;;;;;;;7.35;4.85;;;;;;;17.76;83.55;99361.27;1748072;81;21039;-42
2022/07/24 04:11:07;;;;;;;9.05;4.33;;;;;;;17.75;83.32;99360.06;1748033;81;20992;-42
2022/07/24 04:13:32;;;;;;;6.55;4.87;;;;;;;17.73;83.40;99367.33;1748038;81;20988;-42
2022/07/24 04:15:59;;;;;;;8.30;4.53;;;;;;;17.73;83.16;99363.34;1748030;81;21480;-41
2022/07/24 04:18:25;;;;;;;7.53;4.50;;;;;;;17.77;82.88;99363.42;1748053;81;21508;-39
2022/07/24 04:20:52;;;;;;;11.38;4.75;;;;;;;17.83;82.47;99371.75;1748218;81;21489;-39
2022/07/24 04:23:18;;;;;;;7.83;5.03;;;;;;;17.77;82.55;99371.41;1748023;81;20984;-45
2022/07/24 04:25:43;;;;;;;8.58;4.45;;;;;;;17.79;82.05;99369.00;1748091;81;21023;-40
2022/07/24 04:28:09;;;;;;;7.00;4.62;;;;;;;17.73;82.03;99371.31;1748038;82;20991;-41
2022/07/24 04:30:35;;;;;;;4.83;3.90;;;;;;;17.78;82.07;99375.77;1748004;82;20992;-46
2022/07/24 04:33:01;;;;;;;6.37;3.80;;;;;;;17.79;81.66;99375.64;1748127;81;21036;-42
2022/07/24 04:35:27;;;;;;;8.98;3.70;;;;;;;17.78;80.83;99376.60;1748155;81;21492;-45
2022/07/24 04:37:53;;;;;;;7.65;4.17;;;;;;;17.80;80.46;99380.47;1748052;82;21472;-41
2022/07/24 04:40:18;;;;;;;9.00;3.80;;;;;;;17.83;80.29;99380.22;1748128;82;21487;-45
2022/07/24 04:42:44;;;;;;;5.97;3.17;;;;;;;17.93;79.77;99385.63;1748054;80;21083;-42
2022/07/24 04:45:12;;;;;;;8.25;3.62;;;;;;;17.95;78.09;99386.34;1748091;81;21023;-41
2022/07/24 04:47:38;;;;;;;5.60;3.67;;;;;;;17.99;77.73;99388.63;1748050;81;21034;-42
2022/07/24 04:50:06;;;;;;;6.95;3.40;;;;;;;18.10;78.49;99385.52;1748015;81;20999;-39
2022/07/24 04:52:32;;;;;;;7.03;3.20;;;;;;;18.18;78.17;99389.22;1748020;81;21047;-45
2022/07/24 04:54:58;;;;;;;8.50;3.50;;;;;;;18.25;77.63;99392.21;1748143;81;21027;-40
2022/07/24 04:57:24;;;;;;;10.20;3.42;;;;;;;18.25;76.43;99393.55;1748060;81;21457;-42
2022/07/24 04:59:49;;;;;;;5.28;2.80;;;;;;;18.21;75.95;99385.47;1747992;81;21461;-44
2022/07/24 05:02:15;;;;;;;4.58;2.92;;;;;;;18.18;76.46;99392.38;1748096;81;21499;-43
2022/07/24 05:04:41;;;;;;;4.87;2.52;;;;;;;18.15;75.58;99392.14;1747973;81;20972;-43
2022/07/24 05:07:07;;;;;;;5.70;2.70;;;;;;;18.11;74.55;99391.22;1747978;82;21053;-40
2022/07/24 05:09:33;;;;;;;4.67;2.45;;;;;;;18.03;74.58;99398.03;1748039;81;21011;-40
2022/07/24 05:11:58;;;;;;;5.55;2.80;;;;;;;18.05;74.31;99401.06;1748008;81;20996;-41
2022/07/24 05:14:24;;;;;;;3.10;2.70;;;;;;;18.10;75.04;99397.50;1747969;81;20988;-41
2022/07/24 05:16:50;;;;;;;2.58;2.37;;;;;;;18.12;74.44;99399.07;1747990;81;20968;-42
2022/07/24 05:19:16;;;;;;;3.47;2.55;;;;;;;18.15;74.16;99393.96;1748071;81;20984;-39
2022/07/24 05:21:42;;;;;;;5.70;3.25;;;;;;;18.10;73.57;99401.48;1748063;81;20996;-41
2022/07/24 05:24:08;;;;;;;2.62;1.95;;;;;;;18.11;73.94;99409.34;1748117;81;21462;-39
2022/07/24 05:26:33;;;;;;;3.10;1.95;;;;;;;18.07;73.52;99414.58;1748006;81;21464;-41
2022/07/24 05:29:02;;;;;;;3.67;2.08;;;;;;;18.03;72.93;99415.82;1747960;81;21430;-40
2022/07/24 05:31:28;;;;;;;3.27;1.72;;;;;;;17.97;72.43;99414.52;1747580;81;20984;-42
2022/07/24 05:33:54;;;;;;;6.17;1.87;;;;;;;17.94;72.68;99417.93;1747991;81;21031;-39
2022/07/24 05:36:21;;;;;;;3.98;1.82;;;;;;;17.83;72.83;99416.13;1747989;82;21015;-40
2022/07/24 05:38:47;;;;;;;4.10;2.10;;;;;;;17.87;73.07;99414.92;1748358;81;20964;-43
2022/07/24 05:41:13;;;;;;;3.13;1.70;;;;;;;17.86;72.74;99418.55;1748295;82;21500;-40
2022/07/24 05:43:39;;;;;;;4.70;1.87;;;;;;;17.90;72.93;99417.34;1757831;80;20995;-44
2022/07/24 05:46:05;;;;;;;2.50;1.60;;;;;;;17.88;72.23;99421.08;1761294;81;20991;-41
2022/07/24 05:48:32;;;;;;;3.17;1.90;;;;;;;17.82;72.27;99417.09;1761333;81;20999;-45
2022/07/24 05:50:58;;;;;;;3.60;1.83;;;;;;;17.81;72.05;99418.08;1761625;81;21437;-42
2022/07/24 05:53:24;;;;;;;2.02;1.82;;;;;;;17.87;72.61;99418.92;1761359;81;21528;-41
2022/07/24 05:55:51;;;;;;;2.65;1.75;;;;;;;17.83;72.62;99422.29;1761409;81;20952;-40
2022/07/24 05:58:17;;;;;;;2.70;2.02;;;;;;;17.86;72.84;99419.88;1761436;81;21026;-42
2022/07/24 06:00:43;;;;;;;4.28;2.40;;;;;;;17.92;72.92;99423.38;1761579;81;20975;-43
2022/07/24 06:03:09;;;;;;;7.70;2.65;;;;;;;17.94;72.70;99432.56;1761518;80;20995;-40
2022/07/24 06:05:35;;;;;;;6.05;2.52;;;;;;;17.93;72.71;99421.55;1761364;81;21448;-42
2022/07/24 06:08:01;;;;;;;4.42;2.20;;;;;;;17.87;72.69;99429.56;1761371;81;21734;-41
2022/07/24 06:10:26;;;;;;;5.03;2.30;;;;;;;17.89;71.31;99426.78;1761353;81;21579;-39
2022/07/24 06:12:53;;;;;;;4.10;2.22;;;;;;;17.93;71.75;99430.36;1761523;81;20975;-43
2022/07/24 06:15:19;;;;;;;5.72;2.33;;;;;;;17.97;71.82;99427.83;1761630;81;21496;-45
2022/07/24 06:17:45;;;;;;;4.65;2.25;;;;;;;18.01;72.13;99427.92;1761325;81;20987;-41
2022/07/24 06:20:12;;;;;;;3.65;2.20;;;;;;;18.07;71.96;99423.89;1761344;81;21489;-42
2022/07/24 06:22:40;;;;;;;2.65;1.95;;;;;;;18.03;69.09;99439.27;1761530;81;20979;-42
2022/07/24 06:25:07;;;;;;;4.95;1.80;;;;;;;18.14;70.00;99434.88;1761314;81;20986;-42
2022/07/24 06:27:33;;;;;;;4.80;1.72;;;;;;;18.20;69.84;99438.34;1761458;81;21621;-39
2022/07/24 06:29:58;;;;;;;3.33;2.10;;;;;;;18.13;68.22;99433.17;1761432;81;20982;-44
2022/07/24 06:32:24;;;;;;;3.85;2.00;;;;;;;18.21;68.80;99433.38;1761371;81;21552;-41
2022/07/24 06:34:50;;;;;;;4.28;1.50;;;;;;;18.23;68.54;99432.77;1761453;81;21504;-45
2022/07/24 06:37:16;;;;;;;2.60;1.60;;;;;;;18.39;67.94;99435.80;1761386;81;21056;-42
2022/07/24 06:39:42;;;;;;;4.62;1.67;;;;;;;18.54;67.55;99438.96;1761333;80;20975;-41
2022/07/24 06:42:07;;;;;;;2.92;1.52;;;;;;;18.56;66.26;99440.16;1761308;81;21073;-39
2022/07/24 06:44:36;;;;;;;1.72;1.30;;;;;;;18.59;65.99;99441.21;1748070;80;21020;-44
2022/07/24 06:47:01;;;;;;;4.20;1.47;;;;;;;18.48;63.24;99441.30;1747929;81;21007;-39
2022/07/24 06:49:26;;;;;;;3.67;1.20;;;;;;;18.53;64.28;99444.41;1748014;82;21435;-41
2022/07/24 06:51:52;;;;;;;1.92;1.32;;;;;;;18.52;64.53;99444.05;1748084;82;21830;-42
2022/07/24 06:54:18;;;;;;;2.62;0.93;;;;;;;18.61;64.65;99443.28;1747998;81;21453;-42
2022/07/24 06:56:44;;;;;;;3.50;1.20;;;;;;;18.54;61.27;99444.78;1748064;81;20980;-43
2022/07/24 06:59:09;;;;;;;1.75;0.80;;;;;;;18.60;61.21;99448.23;1747984;81;20997;-47
2022/07/24 07:01:35;;;;;;;3.37;1.25;;;;;;;18.63;60.82;99452.45;1747964;81;21012;-45
2022/07/24 07:04:01;;;;;;;1.85;1.10;;;;;;;18.68;61.16;99448.91;1748142;81;20976;-42
2022/07/24 07:06:27;;;;;;;1.30;1.15;;;;;;;18.71;61.30;99449.98;1748010;81;20984;-42
2022/07/24 07:08:52;;;;;;;6.53;1.20;;;;;;;18.66;60.28;99447.70;1747965;81;21015;-42
2022/07/24 07:11:18;;;;;;;3.85;1.72;;;;;;;18.67;60.29;99446.73;1748022;81;20979;-40
2022/07/24 07:13:44;;;;;;;3.25;1.10;;;;;;;18.73;61.31;99444.86;1747998;81;20987;-41
2022/07/24 07:16:10;;;;;;;2.02;1.40;;;;;;;18.77;60.96;99450.30;1747978;81;21027;-42
2022/07/24 07:18:36;;;;;;;2.50;1.50;;;;;;;18.75;60.88;99452.72;1747983;81;20983;-39
2022/07/24 07:21:03;;;;;;;1.70;1.25;;;;;;;18.72;60.89;99455.17;1748068;81;21031;-41
2022/07/24 07:23:29;;;;;;;4.90;1.40;;;;;;;18.73;61.45;99446.69;1748012;81;20996;-42
2022/07/24 07:25:55;;;;;;;3.30;1.40;;;;;;;18.76;61.64;99446.43;1747966;81;20972;-44
2022/07/24 07:28:21;;;;;;;5.03;1.70;;;;;;;18.79;60.39;99442.14;1748255;82;20995;-39
2022/07/24 07:30:47;;;;;;;1.98;1.22;;;;;;;18.85;60.93;99450.16;1748124;81;21052;-44
2022/07/24 07:33:13;;;;;;;2.08;1.20;;;;;;;18.92;60.81;99445.97;1748127;81;21015;-42
2022/07/24 07:35:38;;;;;;;10.03;1.75;;;;;;;18.95;60.60;99454.52;1748120;81;20988;-41
2022/07/24 07:38:04;;;;;;;3.77;1.50;;;;;;;18.93;59.60;99455.14;1748119;81;21027;-43
2022/07/24 07:40:30;;;;;;;2.40;1.40;;;;;;;19.05;60.30;99460.39;1748096;81;20988;-43
2022/07/24 07:42:56;;;;;;;3.17;1.75;;;;;;;19.13;60.06;99453.88;1747992;81;20996;-44
2022/07/24 07:45:22;;;;;;;2.77;1.45;;;;;;;19.15;59.87;99455.42;1748166;81;20983;-40
2022/07/24 07:47:48;;;;;;;4.85;1.20;;;;;;;19.24;60.04;99447.60;1748073;81;20988;-39
2022/07/24 07:50:14;;;;;;;4.55;1.37;;;;;;;19.30;59.70;99453.71;1748198;81;21007;-42
2022/07/24 07:52:40;;;;;;;2.95;1.37;;;;;;;19.33;59.04;99450.78;1748042;81;20949;-44
2022/07/24 07:55:06;;;;;;;2.37;1.10;;;;;;;19.41;58.14;99444.75;1748096;81;20996;-42
2022/07/24 07:57:32;;;;;;;2.85;1.10;;;;;;;19.39;57.24;99452.88;1748214;81;21000;-43
2022/07/24 07:59:58;;;;;;;9.78;1.32;;;;;;;19.49;58.73;99451.09;1748131;81;20948;-43
2022/07/24 08:02:24;;;;;;;2.12;1.07;;;;;;;19.52;58.63;99456.16;1748155;81;20984;-39
2022/07/24 08:04:49;;;;;;;1.62;0.98;;;;;;;19.54;57.98;99453.36;1748246;81;20995;-38
2022/07/24 08:07:15;;;;;;;1.77;0.98;;;;;;;19.59;57.95;99456.92;1748159;81;20988;-46
2022/07/24 08:09:41;;;;;;;1.37;0.93;;;;;;;19.67;57.36;99459.76;1748148;82;20983;-42
2022/07/24 08:12:07;;;;;;;1.82;0.98;;;;;;;19.72;55.78;99473.53;1748095;81;20964;-39
2022/07/24 08:14:33;;;;;;;2.12;1.20;;;;;;;19.67;54.49;99465.09;1748392;81;20976;-41
2022/07/24 08:16:59;;;;;;;3.12;1.00;;;;;;;19.86;56.14;99461.11;1748144;81;21023;-44
2022/07/24 08:19:25;;;;;;;1.72;1.00;;;;;;;19.96;54.72;99461.63;1748457;82;21464;-45
2022/07/24 08:21:51;;;;;;;4.10;1.00;;;;;;;20.04;53.91;99471.09;1748061;81;21035;-42
2022/07/24 08:24:22;;;;;;;2.40;1.17;;;;;;;20.01;53.46;99467.37;1748182;81;21496;-42
2022/07/24 08:26:49;;;;;;;2.85;0.93;;;;;;;19.93;54.32;99463.57;1748317;81;20992;-42
2022/07/24 08:29:17;;;;;;;5.45;0.80;;;;;;;20.05;54.25;99476.80;1748226;81;21030;-42
2022/07/24 08:31:42;;;;;;;;;;;;;;;20.00;53.53;99487.05;1750850;81;20991;-43
2022/07/24 08:34:08;;;;;;;0.70;0.70;;;;;;;19.94;53.32;99482.63;1748098;81;20148;-42
2022/07/24 08:36:35;;;;;;;2.83;0.98;;;;;;;20.20;54.68;99475.37;1748066;82;20984;-42
2022/07/24 08:39:00;;;;;;;1.50;0.70;;;;;;;20.44;54.14;99478.91;1748086;81;21027;-38
2022/07/24 08:41:32;;;;;;;1.42;1.00;;;;;;;20.63;53.39;99479.88;1748172;82;20956;-41
2022/07/24 08:43:59;;;;;;;0.90;0.80;;;;;;;20.67;53.14;99478.13;1747962;81;21012;-41
2022/07/24 08:46:27;;;;;;;5.70;0.85;;;;;;;20.73;52.65;99482.55;1748321;81;20986;-43
2022/07/24 08:48:53;;;;;;;2.65;0.90;;;;;;;20.77;51.62;99483.93;1748053;81;21469;-43
2022/07/24 08:51:20;;;;;;;3.00;1.22;;;;;;;21.08;52.05;99482.70;1748536;82;20983;-41
2022/07/24 08:53:47;;;;;;;4.22;1.02;;;;;;;21.35;52.04;99487.68;1748207;82;20979;-42
2022/07/24 08:56:13;;;;;;;4.33;1.10;;;;;;;21.62;50.67;99485.51;1748189;81;21484;-40
2022/07/24 08:58:40;;;;;;;0.93;0.90;;;;;;;21.85;50.82;99488.59;1748098;82;21481;-43
2022/07/24 09:01:07;;;;;;;1.70;0.80;;;;;;;21.73;49.78;99486.30;1748048;82;21627;-43
2022/07/24 09:03:42;;;;;;;1.12;0.90;;;;;;;21.89;50.59;99483.77;1748109;81;21104;-39
2022/07/24 09:06:10;;;;;;;3.00;0.90;;;;;;;22.00;50.02;99494.75;1748038;81;20996;-43
2022/07/24 09:08:39;;;;;;;1.42;1.02;;;;;;;21.98;50.10;99496.75;1748173;82;21099;-42
2022/07/24 09:11:06;;;;;;;0.65;0.60;;;;;;;21.86;49.53;99501.47;1748092;81;21027;-41
2022/07/24 09:16:26;;;;;;;1.85;1.00;;;;;;;21.94;48.97;99488.66;1748045;82;21007;-38
2022/07/24 09:19:08;;;;;;;1.22;0.98;;;;;;;22.19;48.83;99494.59;1748044;81;21514;-43
2022/07/24 09:21:37;;;;;;;2.87;1.17;;;;;;;22.55;48.25;99491.86;1748061;82;21485;-44
2022/07/24 09:24:21;;;;;;;2.05;1.30;;;;;;;22.88;48.54;99501.95;1748045;81;21011;-41
2022/07/24 09:26:56;;;;;;;2.50;1.32;;;;;;;22.95;48.17;99506.52;1748045;81;21524;-48
2022/07/24 09:29:24;;;;;;;1.70;1.05;;;;;;;22.62;48.37;99508.17;1748014;81;21010;-39
2022/07/24 09:32:00;;;;;;;1.95;0.72;;;;;;;22.42;48.46;99506.18;1748026;81;20956;-55
2022/07/24 09:34:30;;;;;;;2.80;0.88;;;;;;;22.45;47.33;99507.22;1748043;81;21488;-43
2022/07/24 09:37:03;;;;;;;1.57;0.90;;;;;;;22.70;47.65;99503.35;1737482;82;20972;-51
2022/07/24 09:39:32;;;;;;;1.12;0.80;;;;;;;23.19;47.06;99511.22;1747968;81;20949;-51
2022/07/24 09:41:59;;;;;;;1.10;0.78;;;;;;;23.78;47.57;99491.59;1748150;82;20975;-47
2022/07/24 09:44:25;;;;;;;2.20;1.05;;;;;;;24.29;44.90;99503.59;1755759;80;20996;-35
2022/07/24 09:47:01;;;;;;;1.20;1.10;;;;;;;23.93;45.45;99502.05;1761482;81;21460;-40
2022/07/24 09:49:28;;;;;;;2.00;0.90;;;;;;;23.82;44.92;99505.57;1761442;81;21433;-44
2022/07/24 09:52:15;;;;;;;1.60;0.90;;;;;;;24.06;45.41;99508.27;1761486;81;20987;-42
2022/07/24 09:54:48;;;;;;;1.10;1.00;;;;;;;24.67;44.46;99501.24;1761358;80;21026;-44
2022/07/24 09:57:25;;;;;;;3.95;1.10;;;;;;;25.53;43.99;99508.20;1761361;81;20951;-45
2022/07/24 10:00:03;;;;;;;3.72;0.98;;;;;;;26.38;43.25;99504.09;1761339;81;20967;-50
2022/07/24 10:02:32;;;;;;;1.22;0.80;;;;;;;27.04;40.22;99501.28;1761316;81;21000;-50
2022/07/24 10:05:00;;;;;;;1.52;0.80;;;;;;;27.64;40.42;99500.19;1761432;81;20999;-48
2022/07/24 10:07:28;;;;;;;2.75;0.70;;;;;;;27.71;38.72;99509.21;1761391;81;20979;-48
2022/07/24 10:09:57;;;;;;;1.92;0.90;;;;;;;27.18;38.50;99512.59;1761357;81;20994;-36
2022/07/24 10:12:26;;;;;;;2.50;0.93;;;;;;;26.63;37.62;99517.37;1761350;81;21375;-48
2022/07/24 10:14:56;;;;;;;3.40;0.80;;;;;;;26.64;38.64;99508.27;1761312;81;21035;-45
2022/07/24 10:17:42;;;;;;;1.52;0.98;;;;;;;26.84;38.43;99506.39;1761439;81;21040;-45
2022/07/24 10:20:09;;;;;;;;;;;;;;;27.37;38.84;99503.09;1750216;81;20944;-40
2022/07/24 10:22:40;;;;;;;1.55;0.80;;;;;;;28.03;35.11;99503.01;1744330;81;20120;-41
2022/07/24 10:25:09;;;;;;;1.15;0.60;;;;;;;28.33;34.63;99493.42;1756507;81;20979;-46
2022/07/24 10:27:38;;;;;;;2.10;0.70;;;;;;;28.66;34.79;99503.69;1761333;81;21468;-48
2022/07/24 10:30:09;;;;;;;2.55;1.27;;;;;;;29.24;36.45;99508.86;1761250;81;20963;-40
2022/07/24 10:32:36;;;;;;;2.60;0.82;;;;;;;29.61;34.42;99512.95;1761390;81;21454;-43
2022/07/24 10:35:14;;;;;;;1.22;0.88;;;;;;;29.46;34.78;99509.05;1761272;81;20980;-52
2022/07/24 10:38:00;;;;;;;3.87;0.82;;;;;;;29.93;34.31;99513.29;1761330;81;20997;-52
2022/07/24 10:40:51;;;;;;;0.98;0.70;;;;;;;30.22;33.36;99505.29;1761332;81;21495;-47
2022/07/24 10:43:20;;;;;;;1.12;0.78;;;;;;;30.19;31.31;99508.94;1761296;80;20987;-50
2022/07/24 10:45:58;;;;;;;1.40;0.78;;;;;;;29.86;32.33;99509.73;1761160;81;20959;-47
2022/07/24 10:48:27;;;;;;;4.12;0.80;;;;;;;29.13;32.50;99514.81;1760126;81;20979;-48
2022/07/24 10:51:09;;;;;;;1.20;0.70;;;;;;;28.39;32.37;99498.03;1761484;81;21023;-38
2022/07/24 10:53:49;;;;;;;1.25;0.72;;;;;;;28.59;33.56;99503.63;1761440;81;21023;-44
2022/07/24 10:56:38;;;;;;;1.62;0.93;;;;;;;28.93;34.46;99503.34;1761324;81;21034;-42
2022/07/24 10:59:14;;;;;;;1.40;0.53;;;;;;;29.07;33.44;99499.69;1761346;81;20987;-44
2022/07/24 11:01:47;;;;;;;2.90;0.95;;;;;;;29.34;32.97;99503.88;1761408;81;20983;-47
2022/07/24 11:04:24;;;;;;;1.35;0.85;;;;;;;29.00;33.21;99500.16;1761460;81;20980;-47
2022/07/24 11:07:11;;;;;;;1.27;0.68;;;;;;;28.66;33.21;99492.86;1761541;81;20987;-44
2022/07/24 11:10:00;;;;;;;2.35;0.70;;;;;;;28.59;33.33;99500.09;1761457;81;21029;-51
2022/07/24 11:12:32;;;;;;;1.95;1.00;;;;;;;29.26;33.50;99502.19;1761475;81;21046;-51
2022/07/24 11:17:49;;;;;;;1.85;0.75;;;;;;;30.10;31.93;99500.16;1761471;81;20968;-49
2022/07/24 11:20:19;;;;;;;0.70;0.60;;;;;;;30.38;30.35;99496.45;1761663;81;21466;-37
2022/07/24 11:22:53;;;;;;;2.10;0.62;;;;;;;29.57;31.11;99505.45;1761383;80;20995;-45
2022/07/24 11:25:22;;;;;;;0.80;0.60;;;;;;;29.53;32.11;99497.42;1761457;81;21007;-46
2022/07/24 11:27:56;;;;;;;1.00;0.68;;;;;;;29.60;31.45;99501.81;1761527;81;20979;-47
2022/07/24 11:30:24;;;;;;;1.10;0.80;;;;;;;29.56;31.28;99504.62;1761560;81;21026;-38
2022/07/24 11:32:50;;;;;;;1.00;0.70;;;;;;;30.37;31.58;99501.05;1761463;81;20951;-41
2022/07/24 11:35:17;;;;;;;1.40;0.78;;;;;;;30.87;31.48;99497.87;1761611;81;20987;-48
2022/07/24 11:37:43;;;;;;;6.42;0.78;;;;;;;30.86;30.02;99507.59;1761418;80;20991;-49
2022/07/24 11:40:14;;;;;;;1.00;0.80;;;;;;;30.52;30.28;99501.36;1761463;81;21461;-41